sensor_id;sensor_type;location;lat;lon;timestamp;temperature;humidity
8172;DHT22;4127;47.908;10.850;2022-12-07T00:01:20;2.10;99.90
8172;DHT22;4127;47.908;10.850;2022-12-07T00:03:49;2.10;99.90
8172;DHT22;4127;47.908;10.850;2022-12-07T00:06:17;2.10;99.90
8172;DHT22;4127;47.908;10.850;2022-12-07T00:08:44;2.10;99.90
8172;DHT22;4127;47.908;10.850;2022-12-07T00:11:16;2.10;99.90
8172;DHT22;4127;47.908;10.850;2022-12-07T00:13:44;2.10;99.90
8172;DHT22;4127;47.908;10.850;2022-12-07T00:16:17;2.10;99.90
8172;DHT22;4127;47.908;10.850;2022-12-07T00:18:44;2.10;99.90
8172;DHT22;4127;47.908;10.850;2022-12-07T00:21:12;2.20;99.90
8172;DHT22;4127;47.908;10.850;2022-12-07T00:23:41;2.20;99.90
8172;DHT22;4127;47.908;10.850;2022-12-07T00:28:50;2.20;99.90
8172;DHT22;4127;47.908;10.850;2022-12-07T00:31:19;2.30;99.90
8172;DHT22;4127;47.908;10.850;2022-12-07T00:33:48;2.30;99.90
8172;DHT22;4127;47.908;10.850;2022-12-07T00:36:17;2.20;99.90
8172;DHT22;4127;47.908;10.850;2022-12-07T00:38:52;2.20;99.90
8172;DHT22;4127;47.908;10.850;2022-12-07T00:41:20;2.20;99.90
8172;DHT22;4127;47.908;10.850;2022-12-07T00:43:48;2.20;99.90
8172;DHT22;4127;47.908;10.850;2022-12-07T00:46:16;2.20;99.90
8172;DHT22;4127;47.908;10.850;2022-12-07T00:48:44;2.20;99.90
8172;DHT22;4127;47.908;10.850;2022-12-07T00:51:12;2.30;99.90
8172;DHT22;4127;47.908;10.850;2022-12-07T00:53:39;2.30;99.90
8172;DHT22;4127;47.908;10.850;2022-12-07T00:56:12;2.40;99.90
8172;DHT22;4127;47.908;10.850;2022-12-07T00:58:39;2.50;99.90
8172;DHT22;4127;47.908;10.850;2022-12-07T01:01:07;2.50;99.90
8172;DHT22;4127;47.908;10.850;2022-12-07T01:03:34;2.50;99.90
8172;DHT22;4127;47.908;10.850;2022-12-07T01:06:02;2.40;99.90
8172;DHT22;4127;47.908;10.850;2022-12-07T01:08:29;2.40;99.90
8172;DHT22;4127;47.908;10.850;2022-12-07T01:11:05;2.40;99.90
8172;DHT22;4127;47.908;10.850;2022-12-07T01:13:33;2.40;99.90
8172;DHT22;4127;47.908;10.850;2022-12-07T01:16:02;2.40;99.90
8172;DHT22;4127;47.908;10.850;2022-12-07T01:18:32;2.50;99.90
8172;DHT22;4127;47.908;10.850;2022-12-07T01:21:01;2.50;99.90
8172;DHT22;4127;47.908;10.850;2022-12-07T01:23:28;2.50;99.90
8172;DHT22;4127;47.908;10.850;2022-12-07T01:25:57;2.50;99.90
8172;DHT22;4127;47.908;10.850;2022-12-07T01:28:24;2.50;99.90
8172;DHT22;4127;47.908;10.850;2022-12-07T01:30:59;2.40;99.90
8172;DHT22;4127;47.908;10.850;2022-12-07T01:33:29;2.30;99.90
8172;DHT22;4127;47.908;10.850;2022-12-07T01:36:04;2.30;99.90
8172;DHT22;4127;47.908;10.850;2022-12-07T01:38:32;2.20;99.90
8172;DHT22;4127;47.908;10.850;2022-12-07T01:41:00;2.10;99.90
8172;DHT22;4127;47.908;10.850;2022-12-07T01:43:29;2.00;99.90
8172;DHT22;4127;47.908;10.850;2022-12-07T01:45:56;1.90;99.90
8172;DHT22;4127;47.908;10.850;2022-12-07T01:48:29;2.00;99.90
8172;DHT22;4127;47.908;10.850;2022-12-07T14:38:58;3.20;99.90
8172;DHT22;4127;47.908;10.850;2022-12-07T14:41:26;3.20;99.90
8172;DHT22;4127;47.908;10.850;2022-12-07T14:44:12;3.20;99.90
8172;DHT22;4127;47.908;10.850;2022-12-07T14:46:50;3.10;99.90
8172;DHT22;4127;47.908;10.850;2022-12-07T14:49:37;3.10;99.90
8172;DHT22;4127;47.908;10.850;2022-12-07T14:52:05;3.20;99.90
8172;DHT22;4127;47.908;10.850;2022-12-07T14:54:53;3.30;99.90
8172;DHT22;4127;47.908;10.850;2022-12-07T14:57:19;3.30;99.90
8172;DHT22;4127;47.908;10.850;2022-12-07T14:59:46;3.10;99.90
8172;DHT22;4127;47.908;10.850;2022-12-07T15:02:14;3.10;99.90
8172;DHT22;4127;47.908;10.850;2022-12-07T15:04:41;3.00;99.90
8172;DHT22;4127;47.908;10.850;2022-12-07T15:07:21;2.90;99.90
8172;DHT22;4127;47.908;10.850;2022-12-07T15:09:48;2.80;99.90
8172;DHT22;4127;47.908;10.850;2022-12-07T15:12:15;3.00;99.90
8172;DHT22;4127;47.908;10.850;2022-12-07T15:14:42;3.00;99.90
8172;DHT22;4127;47.908;10.850;2022-12-07T15:17:10;3.00;99.90
8172;DHT22;4127;47.908;10.850;2022-12-07T15:19:53;3.10;99.90
8172;DHT22;4127;47.908;10.850;2022-12-07T15:22:20;3.20;99.90
8172;DHT22;4127;47.908;10.850;2022-12-07T15:24:47;3.10;99.90
8172;DHT22;4127;47.908;10.850;2022-12-07T15:27:13;3.00;99.90
8172;DHT22;4127;47.908;10.850;2022-12-07T15:29:40;2.90;99.90
8172;DHT22;4127;47.908;10.850;2022-12-07T15:32:07;2.80;99.90
8172;DHT22;4127;47.908;10.850;2022-12-07T15:34:34;2.70;99.90
8172;DHT22;4127;47.908;10.850;2022-12-07T15:37:07;2.70;99.90
8172;DHT22;4127;47.908;10.850;2022-12-07T15:39:34;2.60;99.90
8172;DHT22;4127;47.908;10.850;2022-12-07T15:42:00;2.60;99.90
8172;DHT22;4127;47.908;10.850;2022-12-07T15:44:27;2.60;99.90
8172;DHT22;4127;47.908;10.850;2022-12-07T15:47:12;2.60;99.90
8172;DHT22;4127;47.908;10.850;2022-12-07T15:49:39;2.70;99.90
8172;DHT22;4127;47.908;10.850;2022-12-07T15:52:06;2.80;99.90
8172;DHT22;4127;47.908;10.850;2022-12-07T15:54:32;2.70;99.90
8172;DHT22;4127;47.908;10.850;2022-12-07T15:56:59;2.60;99.90
8172;DHT22;4127;47.908;10.850;2022-12-07T15:59:27;2.50;99.90
8172;DHT22;4127;47.908;10.850;2022-12-07T16:01:55;2.40;99.90
8172;DHT22;4127;47.908;10.850;2022-12-07T16:04:22;2.40;99.90
8172;DHT22;4127;47.908;10.850;2022-12-07T16:06:48;2.60;99.90
8172;DHT22;4127;47.908;10.850;2022-12-07T16:09:18;2.50;99.90
8172;DHT22;4127;47.908;10.850;2022-12-07T16:11:44;2.30;99.90
8172;DHT22;4127;47.908;10.850;2022-12-07T16:14:11;2.20;99.90
8172;DHT22;4127;47.908;10.850;2022-12-07T16:16:38;2.20;99.90
8172;DHT22;4127;47.908;10.850;2022-12-07T16:19:07;2.10;99.90
8172;DHT22;4127;47.908;10.850;2022-12-07T16:21:34;2.00;99.90
8172;DHT22;4127;47.908;10.850;2022-12-07T16:24:02;1.90;99.90
8172;DHT22;4127;47.908;10.850;2022-12-07T16:26:29;1.90;99.90
8172;DHT22;4127;47.908;10.850;2022-12-07T16:28:56;1.80;99.90
8172;DHT22;4127;47.908;10.850;2022-12-07T16:31:25;1.90;99.90
8172;DHT22;4127;47.908;10.850;2022-12-07T16:33:54;2.00;99.90
8172;DHT22;4127;47.908;10.850;2022-12-07T16:36:21;2.00;99.90
8172;DHT22;4127;47.908;10.850;2022-12-07T16:39:09;2.00;99.90
8172;DHT22;4127;47.908;10.850;2022-12-07T16:41:36;1.90;99.90
8172;DHT22;4127;47.908;10.850;2022-12-07T16:44:07;2.00;99.90
8172;DHT22;4127;47.908;10.850;2022-12-07T16:46:36;2.00;99.90
8172;DHT22;4127;47.908;10.850;2022-12-07T16:49:03;2.10;99.90
8172;DHT22;4127;47.908;10.850;2022-12-07T16:51:31;2.00;99.90
8172;DHT22;4127;47.908;10.850;2022-12-07T16:53:58;1.90;99.90
8172;DHT22;4127;47.908;10.850;2022-12-07T16:56:25;1.90;99.90
8172;DHT22;4127;47.908;10.850;2022-12-07T16:58:53;1.80;99.90
8172;DHT22;4127;47.908;10.850;2022-12-07T17:01:21;1.80;99.90
8172;DHT22;4127;47.908;10.850;2022-12-07T17:03:49;1.90;99.90
8172;DHT22;4127;47.908;10.850;2022-12-07T17:06:22;2.00;99.90
8172;DHT22;4127;47.908;10.850;2022-12-07T17:08:50;2.00;99.90
8172;DHT22;4127;47.908;10.850;2022-12-07T17:11:26;1.90;99.90
8172;DHT22;4127;47.908;10.850;2022-12-07T17:13:53;1.80;99.90
8172;DHT22;4127;47.908;10.850;2022-12-07T17:16:39;1.80;99.90
8172;DHT22;4127;47.908;10.850;2022-12-07T17:19:08;1.90;99.90
8172;DHT22;4127;47.908;10.850;2022-12-07T17:21:35;1.90;99.90
8172;DHT22;4127;47.908;10.850;2022-12-07T17:24:04;1.90;99.90
8172;DHT22;4127;47.908;10.850;2022-12-07T17:26:31;1.90;99.90
8172;DHT22;4127;47.908;10.850;2022-12-07T17:29:05;2.00;99.90
8172;DHT22;4127;47.908;10.850;2022-12-07T17:31:33;2.00;99.90
8172;DHT22;4127;47.908;10.850;2022-12-07T17:34:01;1.90;99.90
8172;DHT22;4127;47.908;10.850;2022-12-07T17:36:30;1.90;99.90
8172;DHT22;4127;47.908;10.850;2022-12-07T17:38:57;1.90;99.90
8172;DHT22;4127;47.908;10.850;2022-12-07T17:41:26;2.00;99.90
8172;DHT22;4127;47.908;10.850;2022-12-07T17:44:16;2.00;99.90
8172;DHT22;4127;47.908;10.850;2022-12-07T17:46:45;1.90;99.90
8172;DHT22;4127;47.908;10.850;2022-12-07T17:49:12;1.90;99.90
8172;DHT22;4127;47.908;10.850;2022-12-07T17:51:39;1.80;99.90
8172;DHT22;4127;47.908;10.850;2022-12-07T17:54:25;1.90;99.90
8172;DHT22;4127;47.908;10.850;2022-12-07T17:56:51;1.90;99.90
8172;DHT22;4127;47.908;10.850;2022-12-07T17:59:18;1.90;99.90
8172;DHT22;4127;47.908;10.850;2022-12-07T18:01:45;1.80;99.90
8172;DHT22;4127;47.908;10.850;2022-12-07T18:04:12;1.80;99.90
8172;DHT22;4127;47.908;10.850;2022-12-07T18:06:39;1.70;99.90
8172;DHT22;4127;47.908;10.850;2022-12-07T18:09:06;1.70;99.90
8172;DHT22;4127;47.908;10.850;2022-12-07T18:11:34;1.70;99.90
8172;DHT22;4127;47.908;10.850;2022-12-07T18:14:01;1.80;99.90
8172;DHT22;4127;47.908;10.850;2022-12-07T18:16:29;1.80;99.90
8172;DHT22;4127;47.908;10.850;2022-12-07T18:19:00;1.70;99.90
8172;DHT22;4127;47.908;10.850;2022-12-07T18:21:29;1.70;99.90
8172;DHT22;4127;47.908;10.850;2022-12-07T18:23:58;1.60;99.90
8172;DHT22;4127;47.908;10.850;2022-12-07T18:26:29;1.60;99.90
8172;DHT22;4127;47.908;10.850;2022-12-07T18:28:58;1.50;99.90
8172;DHT22;4127;47.908;10.850;2022-12-07T18:31:25;1.50;99.90
8172;DHT22;4127;47.908;10.850;2022-12-07T18:33:51;1.60;99.90
8172;DHT22;4127;47.908;10.850;2022-12-07T18:36:22;1.70;99.90
8172;DHT22;4127;47.908;10.850;2022-12-07T18:38:49;1.70;99.90
8172;DHT22;4127;47.908;10.850;2022-12-07T18:41:17;1.60;99.90
8172;DHT22;4127;47.908;10.850;2022-12-07T18:43:44;1.70;99.90
8172;DHT22;4127;47.908;10.850;2022-12-07T18:46:13;1.70;99.90
8172;DHT22;4127;47.908;10.850;2022-12-07T18:48:40;1.70;99.90
8172;DHT22;4127;47.908;10.850;2022-12-07T18:51:09;1.50;99.90
8172;DHT22;4127;47.908;10.850;2022-12-07T18:53:36;1.30;99.90
8172;DHT22;4127;47.908;10.850;2022-12-07T18:56:11;1.30;99.90
8172;DHT22;4127;47.908;10.850;2022-12-07T18:58:39;1.40;99.90
8172;DHT22;4127;47.908;10.850;2022-12-07T19:01:30;1.40;99.90
8172;DHT22;4127;47.908;10.850;2022-12-07T19:03:58;1.40;99.90
8172;DHT22;4127;47.908;10.850;2022-12-07T19:06:25;1.40;99.90
8172;DHT22;4127;47.908;10.850;2022-12-07T19:08:54;1.40;99.90
8172;DHT22;4127;47.908;10.850;2022-12-07T19:11:28;1.40;99.90
8172;DHT22;4127;47.908;10.850;2022-12-07T19:14:35;1.40;99.90
8172;DHT22;4127;47.908;10.850;2022-12-07T19:17:11;1.30;99.90
8172;DHT22;4127;47.908;10.850;2022-12-07T19:19:44;1.30;99.90
8172;DHT22;4127;47.908;10.850;2022-12-07T19:22:13;1.40;99.90
8172;DHT22;4127;47.908;10.850;2022-12-07T19:24:40;1.40;99.90
8172;DHT22;4127;47.908;10.850;2022-12-07T19:27:09;1.40;99.90
8172;DHT22;4127;47.908;10.850;2022-12-07T19:29:37;1.40;99.90
8172;DHT22;4127;47.908;10.850;2022-12-07T19:32:04;1.40;99.90
8172;DHT22;4127;47.908;10.850;2022-12-07T19:34:31;1.30;99.90
8172;DHT22;4127;47.908;10.850;2022-12-07T19:36:58;1.30;99.90
8172;DHT22;4127;47.908;10.850;2022-12-07T19:39:25;1.40;99.90
8172;DHT22;4127;47.908;10.850;2022-12-07T19:41:52;1.30;99.90
8172;DHT22;4127;47.908;10.850;2022-12-07T19:44:21;1.30;99.90
8172;DHT22;4127;47.908;10.850;2022-12-07T19:46:53;1.30;99.90
8172;DHT22;4127;47.908;10.850;2022-12-07T19:49:29;1.40;99.90
8172;DHT22;4127;47.908;10.850;2022-12-07T19:51:58;1.50;99.90
8172;DHT22;4127;47.908;10.850;2022-12-07T19:54:27;1.30;99.90
8172;DHT22;4127;47.908;10.850;2022-12-07T19:56:55;1.20;99.90
8172;DHT22;4127;47.908;10.850;2022-12-07T19:59:24;1.10;99.90
8172;DHT22;4127;47.908;10.850;2022-12-07T20:01:52;1.10;99.90
8172;DHT22;4127;47.908;10.850;2022-12-07T20:04:21;1.20;99.90
8172;DHT22;4127;47.908;10.850;2022-12-07T20:06:51;1.20;99.90
8172;DHT22;4127;47.908;10.850;2022-12-07T20:09:19;1.20;99.90
8172;DHT22;4127;47.908;10.850;2022-12-07T20:11:46;1.20;99.90
8172;DHT22;4127;47.908;10.850;2022-12-07T20:14:31;1.20;99.90
8172;DHT22;4127;47.908;10.850;2022-12-07T20:16:58;1.20;99.90
8172;DHT22;4127;47.908;10.850;2022-12-07T20:19:25;1.20;99.90
8172;DHT22;4127;47.908;10.850;2022-12-07T20:21:52;1.20;99.90
8172;DHT22;4127;47.908;10.850;2022-12-07T20:24:21;1.10;99.90
8172;DHT22;4127;47.908;10.850;2022-12-07T20:26:49;1.10;99.90
8172;DHT22;4127;47.908;10.850;2022-12-07T20:29:19;1.10;99.90
8172;DHT22;4127;47.908;10.850;2022-12-07T20:31:47;1.10;99.90
8172;DHT22;4127;47.908;10.850;2022-12-07T20:34:14;1.10;99.90
8172;DHT22;4127;47.908;10.850;2022-12-07T20:36:42;1.10;99.90
8172;DHT22;4127;47.908;10.850;2022-12-07T20:39:09;1.10;99.90
8172;DHT22;4127;47.908;10.850;2022-12-07T20:41:37;1.10;99.90
8172;DHT22;4127;47.908;10.850;2022-12-07T20:44:22;1.10;99.90
8172;DHT22;4127;47.908;10.850;2022-12-07T20:46:49;1.10;99.90
8172;DHT22;4127;47.908;10.850;2022-12-07T20:49:16;1.20;99.90
8172;DHT22;4127;47.908;10.850;2022-12-07T20:51:44;1.10;99.90
8172;DHT22;4127;47.908;10.850;2022-12-07T20:54:11;1.20;99.90
8172;DHT22;4127;47.908;10.850;2022-12-07T20:56:39;1.10;99.90
8172;DHT22;4127;47.908;10.850;2022-12-07T20:59:07;1.10;99.90
8172;DHT22;4127;47.908;10.850;2022-12-07T21:01:37;1.10;99.90
8172;DHT22;4127;47.908;10.850;2022-12-07T21:04:04;1.10;99.90
8172;DHT22;4127;47.908;10.850;2022-12-07T21:06:31;1.10;99.90
8172;DHT22;4127;47.908;10.850;2022-12-07T21:08:58;1.20;99.90
8172;DHT22;4127;47.908;10.850;2022-12-07T21:11:27;1.20;99.90
8172;DHT22;4127;47.908;10.850;2022-12-07T21:13:54;1.20;99.90
8172;DHT22;4127;47.908;10.850;2022-12-07T21:16:26;1.20;99.90
8172;DHT22;4127;47.908;10.850;2022-12-07T21:18:55;1.20;99.90
8172;DHT22;4127;47.908;10.850;2022-12-07T21:21:22;1.20;99.90
8172;DHT22;4127;47.908;10.850;2022-12-07T21:23:51;1.20;99.90
8172;DHT22;4127;47.908;10.850;2022-12-07T21:26:26;1.20;99.90
8172;DHT22;4127;47.908;10.850;2022-12-07T21:28:53;1.20;99.90
8172;DHT22;4127;47.908;10.850;2022-12-07T21:31:20;1.20;99.90
8172;DHT22;4127;47.908;10.850;2022-12-07T21:33:47;1.20;99.90
8172;DHT22;4127;47.908;10.850;2022-12-07T21:36:18;1.20;99.90
8172;DHT22;4127;47.908;10.850;2022-12-07T21:38:46;1.20;99.90
8172;DHT22;4127;47.908;10.850;2022-12-07T21:41:24;1.20;99.90
8172;DHT22;4127;47.908;10.850;2022-12-07T21:43:51;1.20;99.90
8172;DHT22;4127;47.908;10.850;2022-12-07T21:46:20;1.20;99.90
8172;DHT22;4127;47.908;10.850;2022-12-07T21:48:52;1.20;99.90
8172;DHT22;4127;47.908;10.850;2022-12-07T21:51:20;1.10;99.90
8172;DHT22;4127;47.908;10.850;2022-12-07T21:53:48;1.20;99.90
8172;DHT22;4127;47.908;10.850;2022-12-07T21:56:20;1.20;99.90
8172;DHT22;4127;47.908;10.850;2022-12-07T21:58:48;1.20;99.90
8172;DHT22;4127;47.908;10.850;2022-12-07T22:01:20;1.20;99.90
8172;DHT22;4127;47.908;10.850;2022-12-07T22:03:48;1.20;99.90
8172;DHT22;4127;47.908;10.850;2022-12-07T22:06:17;1.20;99.90
8172;DHT22;4127;47.908;10.850;2022-12-07T22:08:44;1.30;99.90
8172;DHT22;4127;47.908;10.850;2022-12-07T22:11:11;1.40;99.90
8172;DHT22;4127;47.908;10.850;2022-12-07T22:13:40;1.40;99.90
8172;DHT22;4127;47.908;10.850;2022-12-07T22:16:30;1.50;99.90
8172;DHT22;4127;47.908;10.850;2022-12-07T22:18:57;1.50;99.90
8172;DHT22;4127;47.908;10.850;2022-12-07T22:21:24;1.40;99.90
8172;DHT22;4127;47.908;10.850;2022-12-07T22:23:51;1.50;99.90
8172;DHT22;4127;47.908;10.850;2022-12-07T22:26:18;1.40;99.90
8172;DHT22;4127;47.908;10.850;2022-12-07T22:28:50;1.40;99.90
8172;DHT22;4127;47.908;10.850;2022-12-07T22:31:18;1.40;99.90
8172;DHT22;4127;47.908;10.850;2022-12-07T22:33:45;1.40;99.90
8172;DHT22;4127;47.908;10.850;2022-12-07T22:36:13;1.40;99.90
8172;DHT22;4127;47.908;10.850;2022-12-07T22:38:40;1.50;99.90
8172;DHT22;4127;47.908;10.850;2022-12-07T22:41:28;1.50;99.90
8172;DHT22;4127;47.908;10.850;2022-12-07T22:43:56;1.40;99.90
8172;DHT22;4127;47.908;10.850;2022-12-07T22:46:23;1.40;99.90
8172;DHT22;4127;47.908;10.850;2022-12-07T22:48:50;1.30;99.90
8172;DHT22;4127;47.908;10.850;2022-12-07T22:51:24;1.20;99.90
8172;DHT22;4127;47.908;10.850;2022-12-07T22:53:52;1.10;99.90
8172;DHT22;4127;47.908;10.850;2022-12-07T22:56:19;1.10;99.90
8172;DHT22;4127;47.908;10.850;2022-12-07T22:58:47;1.10;99.90
8172;DHT22;4127;47.908;10.850;2022-12-07T23:01:15;1.10;99.90
8172;DHT22;4127;47.908;10.850;2022-12-07T23:03:43;1.10;99.90
8172;DHT22;4127;47.908;10.850;2022-12-07T23:06:15;1.10;99.90
8172;DHT22;4127;47.908;10.850;2022-12-07T23:08:43;1.00;99.90
8172;DHT22;4127;47.908;10.850;2022-12-07T23:11:11;1.10;99.90
8172;DHT22;4127;47.908;10.850;2022-12-07T23:14:05;1.10;99.90
8172;DHT22;4127;47.908;10.850;2022-12-07T23:16:34;1.10;99.90
8172;DHT22;4127;47.908;10.850;2022-12-07T23:19:01;1.10;99.90
8172;DHT22;4127;47.908;10.850;2022-12-07T23:21:28;1.10;99.90
8172;DHT22;4127;47.908;10.850;2022-12-07T23:23:55;1.20;99.90
8172;DHT22;4127;47.908;10.850;2022-12-07T23:26:21;1.30;99.90
8172;DHT22;4127;47.908;10.850;2022-12-07T23:28:48;1.30;99.90
8172;DHT22;4127;47.908;10.850;2022-12-07T23:31:16;1.30;99.90
8172;DHT22;4127;47.908;10.850;2022-12-07T23:33:43;1.30;99.90
8172;DHT22;4127;47.908;10.850;2022-12-07T23:36:15;1.20;99.90
8172;DHT22;4127;47.908;10.850;2022-12-07T23:38:43;1.20;99.90
8172;DHT22;4127;47.908;10.850;2022-12-07T23:41:12;1.20;99.90
8172;DHT22;4127;47.908;10.850;2022-12-07T23:43:40;1.20;99.90
8172;DHT22;4127;47.908;10.850;2022-12-07T23:46:14;1.10;99.90
8172;DHT22;4127;47.908;10.850;2022-12-07T23:48:42;1.00;99.90
8172;DHT22;4127;47.908;10.850;2022-12-07T23:51:09;1.10;99.90
8172;DHT22;4127;47.908;10.850;2022-12-07T23:53:40;1.10;99.90
8172;DHT22;4127;47.908;10.850;2022-12-07T23:56:11;1.00;99.90
8172;DHT22;4127;47.908;10.850;2022-12-07T23:58:38;1.00;99.90
